sensor_id;sensor_type;location;lat;lon;timestamp;P1;durP1;ratioP1;P2;durP2;ratioP2
12871;SDS011;6504;53.766;9.626;2022-10-15T00:01:04;13.80;;;12.37;;
12871;SDS011;6504;53.766;9.626;2022-10-15T00:03:34;13.37;;;12.07;;
12871;SDS011;6504;53.766;9.626;2022-10-15T00:06:04;14.17;;;12.87;;
12871;SDS011;6504;53.766;9.626;2022-10-15T00:08:33;14.53;;;13.13;;
12871;SDS011;6504;53.766;9.626;2022-10-15T00:11:04;16.33;;;13.90;;
12871;SDS011;6504;53.766;9.626;2022-10-15T00:13:34;14.57;;;13.17;;
12871;SDS011;6504;53.766;9.626;2022-10-15T00:16:03;15.27;;;13.77;;
12871;SDS011;6504;53.766;9.626;2022-10-15T00:18:33;16.57;;;14.93;;
12871;SDS011;6504;53.766;9.626;2022-10-15T00:21:03;15.00;;;13.50;;
12871;SDS011;6504;53.766;9.626;2022-10-15T00:23:32;13.93;;;12.63;;
12871;SDS011;6504;53.766;9.626;2022-10-15T00:26:02;17.27;;;14.97;;
12871;SDS011;6504;53.766;9.626;2022-10-15T00:28:33;16.87;;;15.17;;
12871;SDS011;6504;53.766;9.626;2022-10-15T00:31:02;18.33;;;16.43;;
12871;SDS011;6504;53.766;9.626;2022-10-15T00:33:33;17.27;;;15.57;;
12871;SDS011;6504;53.766;9.626;2022-10-15T00:36:02;17.63;;;15.73;;
12871;SDS011;6504;53.766;9.626;2022-10-15T00:38:32;18.43;;;16.63;;
12871;SDS011;6504;53.766;9.626;2022-10-15T00:41:01;18.10;;;16.30;;
12871;SDS011;6504;53.766;9.626;2022-10-15T00:43:35;19.63;;;17.73;;
12871;SDS011;6504;53.766;9.626;2022-10-15T00:46:05;19.63;;;17.73;;
12871;SDS011;6504;53.766;9.626;2022-10-15T00:48:41;21.23;;;19.03;;
12871;SDS011;6504;53.766;9.626;2022-10-15T00:51:10;21.77;;;19.57;;
12871;SDS011;6504;53.766;9.626;2022-10-15T00:53:38;20.60;;;18.50;;
12871;SDS011;6504;53.766;9.626;2022-10-15T00:56:07;21.33;;;19.03;;
12871;SDS011;6504;53.766;9.626;2022-10-15T00:58:36;22.20;;;19.93;;
12871;SDS011;6504;53.766;9.626;2022-10-15T01:01:04;22.23;;;20.10;;
12871;SDS011;6504;53.766;9.626;2022-10-15T01:03:32;22.30;;;20.10;;
12871;SDS011;6504;53.766;9.626;2022-10-15T01:06:01;23.03;;;20.63;;
12871;SDS011;6504;53.766;9.626;2022-10-15T01:08:30;23.30;;;21.00;;
12871;SDS011;6504;53.766;9.626;2022-10-15T01:11:00;22.50;;;20.10;;
12871;SDS011;6504;53.766;9.626;2022-10-15T01:13:36;22.50;;;20.27;;
12871;SDS011;6504;53.766;9.626;2022-10-15T01:16:14;24.10;;;21.70;;
12871;SDS011;6504;53.766;9.626;2022-10-15T01:18:47;25.30;;;22.70;;
12871;SDS011;6504;53.766;9.626;2022-10-15T01:21:21;27.07;;;23.40;;
12871;SDS011;6504;53.766;9.626;2022-10-15T01:24:04;27.20;;;24.30;;
12871;SDS011;6504;53.766;9.626;2022-10-15T01:27:13;27.37;;;23.23;;
12871;SDS011;6504;53.766;9.626;2022-10-15T01:30:04;28.17;;;25.10;;
12871;SDS011;6504;53.766;9.626;2022-10-15T01:35:32;27.13;;;23.90;;
12871;SDS011;6504;53.766;9.626;2022-10-15T01:38:18;26.03;;;23.13;;
12871;SDS011;6504;53.766;9.626;2022-10-15T01:41:02;26.40;;;23.60;;
12871;SDS011;6504;53.766;9.626;2022-10-15T01:43:37;25.83;;;23.03;;
12871;SDS011;6504;53.766;9.626;2022-10-15T01:46:11;27.87;;;24.97;;
12871;SDS011;6504;53.766;9.626;2022-10-15T01:48:44;28.27;;;25.03;;
12871;SDS011;6504;53.766;9.626;2022-10-15T01:51:12;27.63;;;24.63;;
12871;SDS011;6504;53.766;9.626;2022-10-15T01:53:43;29.10;;;25.00;;
12871;SDS011;6504;53.766;9.626;2022-10-15T01:56:13;28.10;;;24.33;;
12871;SDS011;6504;53.766;9.626;2022-10-15T01:58:46;31.67;;;27.27;;
12871;SDS011;6504;53.766;9.626;2022-10-15T02:01:16;31.03;;;27.50;;
12871;SDS011;6504;53.766;9.626;2022-10-15T02:03:47;34.37;;;28.47;;
12871;SDS011;6504;53.766;9.626;2022-10-15T02:06:18;32.47;;;27.27;;
12871;SDS011;6504;53.766;9.626;2022-10-15T02:09:00;34.43;;;27.80;;
12871;SDS011;6504;53.766;9.626;2022-10-15T02:11:40;35.17;;;28.83;;
12871;SDS011;6504;53.766;9.626;2022-10-15T02:14:19;35.63;;;28.50;;
12871;SDS011;6504;53.766;9.626;2022-10-15T02:16:55;33.90;;;27.10;;
12871;SDS011;6504;53.766;9.626;2022-10-15T02:19:31;31.37;;;26.17;;
12871;SDS011;6504;53.766;9.626;2022-10-15T02:22:10;31.93;;;27.20;;
12871;SDS011;6504;53.766;9.626;2022-10-15T02:24:43;30.57;;;25.87;;
12871;SDS011;6504;53.766;9.626;2022-10-15T02:27:20;33.80;;;27.30;;
12871;SDS011;6504;53.766;9.626;2022-10-15T02:29:49;34.37;;;28.30;;
12871;SDS011;6504;53.766;9.626;2022-10-15T02:32:19;31.00;;;26.93;;
12871;SDS011;6504;53.766;9.626;2022-10-15T02:34:51;33.47;;;28.13;;
12871;SDS011;6504;53.766;9.626;2022-10-15T02:37:21;33.80;;;27.63;;
12871;SDS011;6504;53.766;9.626;2022-10-15T02:39:51;33.30;;;28.70;;
12871;SDS011;6504;53.766;9.626;2022-10-15T02:42:20;35.87;;;29.80;;
12871;SDS011;6504;53.766;9.626;2022-10-15T02:44:49;35.10;;;29.30;;
12871;SDS011;6504;53.766;9.626;2022-10-15T02:47:17;32.33;;;27.00;;
12871;SDS011;6504;53.766;9.626;2022-10-15T02:49:45;34.93;;;27.97;;
12871;SDS011;6504;53.766;9.626;2022-10-15T02:52:15;33.47;;;29.27;;
12871;SDS011;6504;53.766;9.626;2022-10-15T02:54:43;31.27;;;26.77;;
12871;SDS011;6504;53.766;9.626;2022-10-15T02:57:11;32.90;;;27.33;;
12871;SDS011;6504;53.766;9.626;2022-10-15T02:59:39;31.70;;;27.40;;
12871;SDS011;6504;53.766;9.626;2022-10-15T03:02:07;31.47;;;27.70;;
12871;SDS011;6504;53.766;9.626;2022-10-15T03:04:42;35.20;;;28.63;;
12871;SDS011;6504;53.766;9.626;2022-10-15T03:07:10;34.00;;;26.70;;
12871;SDS011;6504;53.766;9.626;2022-10-15T03:09:40;34.93;;;27.97;;
12871;SDS011;6504;53.766;9.626;2022-10-15T03:12:08;32.37;;;26.53;;
12871;SDS011;6504;53.766;9.626;2022-10-15T03:14:36;33.40;;;26.27;;
12871;SDS011;6504;53.766;9.626;2022-10-15T03:17:04;32.90;;;26.23;;
12871;SDS011;6504;53.766;9.626;2022-10-15T03:19:32;33.77;;;26.00;;
12871;SDS011;6504;53.766;9.626;2022-10-15T03:22:01;34.70;;;27.30;;
12871;SDS011;6504;53.766;9.626;2022-10-15T03:24:29;35.10;;;26.67;;
12871;SDS011;6504;53.766;9.626;2022-10-15T03:26:58;35.87;;;26.13;;
12871;SDS011;6504;53.766;9.626;2022-10-15T03:29:26;32.30;;;26.47;;
12871;SDS011;6504;53.766;9.626;2022-10-15T03:31:54;35.83;;;26.10;;
12871;SDS011;6504;53.766;9.626;2022-10-15T03:34:22;33.33;;;25.53;;
12871;SDS011;6504;53.766;9.626;2022-10-15T03:36:50;28.53;;;23.20;;
12871;SDS011;6504;53.766;9.626;2022-10-15T03:39:18;28.60;;;23.50;;
12871;SDS011;6504;53.766;9.626;2022-10-15T03:41:46;31.70;;;23.87;;
12871;SDS011;6504;53.766;9.626;2022-10-15T03:44:16;31.77;;;24.23;;
12871;SDS011;6504;53.766;9.626;2022-10-15T03:46:44;31.23;;;23.47;;
12871;SDS011;6504;53.766;9.626;2022-10-15T03:49:12;30.67;;;24.90;;
12871;SDS011;6504;53.766;9.626;2022-10-15T03:51:40;34.83;;;26.63;;
12871;SDS011;6504;53.766;9.626;2022-10-15T03:54:08;34.50;;;25.60;;
12871;SDS011;6504;53.766;9.626;2022-10-15T03:56:36;32.93;;;25.63;;
12871;SDS011;6504;53.766;9.626;2022-10-15T03:59:04;32.90;;;25.63;;
12871;SDS011;6504;53.766;9.626;2022-10-15T04:01:34;34.60;;;27.00;;
12871;SDS011;6504;53.766;9.626;2022-10-15T04:04:02;35.83;;;26.37;;
12871;SDS011;6504;53.766;9.626;2022-10-15T04:06:30;37.37;;;26.03;;
12871;SDS011;6504;53.766;9.626;2022-10-15T04:08:59;40.10;;;27.30;;
12871;SDS011;6504;53.766;9.626;2022-10-15T04:11:27;36.83;;;27.57;;
12871;SDS011;6504;53.766;9.626;2022-10-15T04:13:55;35.43;;;26.60;;
12871;SDS011;6504;53.766;9.626;2022-10-15T04:16:23;41.53;;;28.07;;
12871;SDS011;6504;53.766;9.626;2022-10-15T04:18:53;39.50;;;28.27;;
12871;SDS011;6504;53.766;9.626;2022-10-15T04:21:22;40.83;;;28.03;;
12871;SDS011;6504;53.766;9.626;2022-10-15T04:23:51;41.37;;;28.47;;
12871;SDS011;6504;53.766;9.626;2022-10-15T04:26:19;36.53;;;27.50;;
12871;SDS011;6504;53.766;9.626;2022-10-15T04:28:47;40.67;;;27.30;;
12871;SDS011;6504;53.766;9.626;2022-10-15T04:31:15;45.37;;;28.53;;
12871;SDS011;6504;53.766;9.626;2022-10-15T04:33:43;36.70;;;27.20;;
12871;SDS011;6504;53.766;9.626;2022-10-15T04:36:15;41.67;;;28.67;;
12871;SDS011;6504;53.766;9.626;2022-10-15T04:38:48;41.47;;;27.87;;
12871;SDS011;6504;53.766;9.626;2022-10-15T04:41:16;43.20;;;27.87;;
12871;SDS011;6504;53.766;9.626;2022-10-15T04:43:44;40.97;;;27.83;;
12871;SDS011;6504;53.766;9.626;2022-10-15T04:46:12;40.13;;;27.73;;
12871;SDS011;6504;53.766;9.626;2022-10-15T04:48:40;43.07;;;28.10;;
12871;SDS011;6504;53.766;9.626;2022-10-15T04:51:09;45.03;;;28.47;;
12871;SDS011;6504;53.766;9.626;2022-10-15T04:53:41;48.67;;;29.10;;
12871;SDS011;6504;53.766;9.626;2022-10-15T04:56:10;47.27;;;28.47;;
12871;SDS011;6504;53.766;9.626;2022-10-15T04:58:40;42.90;;;28.93;;
12871;SDS011;6504;53.766;9.626;2022-10-15T05:01:11;47.97;;;28.67;;
12871;SDS011;6504;53.766;9.626;2022-10-15T05:03:41;48.70;;;28.53;;
12871;SDS011;6504;53.766;9.626;2022-10-15T05:06:11;50.20;;;28.67;;
12871;SDS011;6504;53.766;9.626;2022-10-15T05:08:42;45.13;;;27.67;;
12871;SDS011;6504;53.766;9.626;2022-10-15T05:11:12;45.43;;;26.20;;
12871;SDS011;6504;53.766;9.626;2022-10-15T05:13:41;47.63;;;27.77;;
12871;SDS011;6504;53.766;9.626;2022-10-15T05:16:11;49.13;;;28.67;;
12871;SDS011;6504;53.766;9.626;2022-10-15T05:18:41;47.93;;;26.90;;
12871;SDS011;6504;53.766;9.626;2022-10-15T05:21:10;51.30;;;27.90;;
12871;SDS011;6504;53.766;9.626;2022-10-15T05:23:39;57.10;;;30.30;;
12871;SDS011;6504;53.766;9.626;2022-10-15T05:26:11;56.53;;;30.57;;
12871;SDS011;6504;53.766;9.626;2022-10-15T05:28:40;51.00;;;29.40;;
12871;SDS011;6504;53.766;9.626;2022-10-15T05:31:10;53.37;;;29.60;;
12871;SDS011;6504;53.766;9.626;2022-10-15T05:33:45;58.03;;;29.40;;
12871;SDS011;6504;53.766;9.626;2022-10-15T05:36:14;59.03;;;30.10;;
12871;SDS011;6504;53.766;9.626;2022-10-15T05:38:44;53.93;;;28.33;;
12871;SDS011;6504;53.766;9.626;2022-10-15T05:41:15;60.17;;;31.17;;
12871;SDS011;6504;53.766;9.626;2022-10-15T05:43:45;58.13;;;31.17;;
12871;SDS011;6504;53.766;9.626;2022-10-15T05:46:13;63.03;;;31.60;;
12871;SDS011;6504;53.766;9.626;2022-10-15T05:48:41;59.90;;;29.23;;
12871;SDS011;6504;53.766;9.626;2022-10-15T05:51:11;56.00;;;30.20;;
12871;SDS011;6504;53.766;9.626;2022-10-15T05:53:40;53.00;;;29.50;;
12871;SDS011;6504;53.766;9.626;2022-10-15T05:56:11;55.07;;;29.10;;
12871;SDS011;6504;53.766;9.626;2022-10-15T05:58:41;60.33;;;31.00;;
12871;SDS011;6504;53.766;9.626;2022-10-15T06:01:09;59.40;;;30.63;;
12871;SDS011;6504;53.766;9.626;2022-10-15T06:03:39;55.33;;;29.80;;
12871;SDS011;6504;53.766;9.626;2022-10-15T06:06:17;52.97;;;29.27;;
12871;SDS011;6504;53.766;9.626;2022-10-15T06:08:47;54.10;;;28.50;;
12871;SDS011;6504;53.766;9.626;2022-10-15T06:11:15;54.60;;;29.83;;
12871;SDS011;6504;53.766;9.626;2022-10-15T06:13:45;59.33;;;30.57;;
12871;SDS011;6504;53.766;9.626;2022-10-15T06:16:14;59.53;;;30.73;;
12871;SDS011;6504;53.766;9.626;2022-10-15T06:18:49;59.10;;;32.33;;
12871;SDS011;6504;53.766;9.626;2022-10-15T06:21:18;61.80;;;34.13;;
12871;SDS011;6504;53.766;9.626;2022-10-15T06:23:46;61.47;;;34.50;;
12871;SDS011;6504;53.766;9.626;2022-10-15T06:26:14;64.57;;;35.90;;
12871;SDS011;6504;53.766;9.626;2022-10-15T06:28:42;62.20;;;34.90;;
12871;SDS011;6504;53.766;9.626;2022-10-15T06:31:12;61.37;;;35.50;;
12871;SDS011;6504;53.766;9.626;2022-10-15T06:33:40;59.93;;;33.10;;
12871;SDS011;6504;53.766;9.626;2022-10-15T06:36:09;61.53;;;34.27;;
12871;SDS011;6504;53.766;9.626;2022-10-15T06:38:39;62.50;;;34.57;;
12871;SDS011;6504;53.766;9.626;2022-10-15T06:41:09;59.17;;;34.30;;
12871;SDS011;6504;53.766;9.626;2022-10-15T06:43:37;64.20;;;35.23;;
12871;SDS011;6504;53.766;9.626;2022-10-15T06:46:07;63.27;;;35.57;;
12871;SDS011;6504;53.766;9.626;2022-10-15T06:48:35;63.50;;;36.70;;
12871;SDS011;6504;53.766;9.626;2022-10-15T06:51:04;56.97;;;35.07;;
12871;SDS011;6504;53.766;9.626;2022-10-15T06:53:32;64.77;;;37.33;;
12871;SDS011;6504;53.766;9.626;2022-10-15T06:56:01;57.70;;;34.93;;
12871;SDS011;6504;53.766;9.626;2022-10-15T06:58:30;57.07;;;33.23;;
12871;SDS011;6504;53.766;9.626;2022-10-15T07:00:58;58.83;;;34.97;;
12871;SDS011;6504;53.766;9.626;2022-10-15T07:03:30;63.53;;;36.57;;
12871;SDS011;6504;53.766;9.626;2022-10-15T07:06:00;64.40;;;36.13;;
12871;SDS011;6504;53.766;9.626;2022-10-15T07:08:29;61.03;;;36.00;;
12871;SDS011;6504;53.766;9.626;2022-10-15T07:10:59;61.13;;;35.43;;
12871;SDS011;6504;53.766;9.626;2022-10-15T07:13:28;69.73;;;39.13;;
12871;SDS011;6504;53.766;9.626;2022-10-15T07:15:56;62.87;;;35.80;;
12871;SDS011;6504;53.766;9.626;2022-10-15T07:18:24;57.77;;;35.70;;
12871;SDS011;6504;53.766;9.626;2022-10-15T07:20:54;55.07;;;33.97;;
12871;SDS011;6504;53.766;9.626;2022-10-15T07:23:23;59.77;;;37.43;;
12871;SDS011;6504;53.766;9.626;2022-10-15T07:25:53;60.63;;;37.03;;
12871;SDS011;6504;53.766;9.626;2022-10-15T07:28:21;61.67;;;37.23;;
12871;SDS011;6504;53.766;9.626;2022-10-15T07:30:50;61.43;;;38.83;;
12871;SDS011;6504;53.766;9.626;2022-10-15T07:33:18;63.23;;;39.27;;
12871;SDS011;6504;53.766;9.626;2022-10-15T07:35:46;62.63;;;39.93;;
12871;SDS011;6504;53.766;9.626;2022-10-15T07:38:16;61.53;;;41.00;;
12871;SDS011;6504;53.766;9.626;2022-10-15T07:40:44;66.20;;;40.30;;
12871;SDS011;6504;53.766;9.626;2022-10-15T07:43:12;68.00;;;42.53;;
12871;SDS011;6504;53.766;9.626;2022-10-15T07:45:41;64.20;;;39.80;;
12871;SDS011;6504;53.766;9.626;2022-10-15T07:48:15;64.67;;;39.57;;
12871;SDS011;6504;53.766;9.626;2022-10-15T07:50:43;69.67;;;43.07;;
12871;SDS011;6504;53.766;9.626;2022-10-15T07:53:11;70.57;;;43.87;;
12871;SDS011;6504;53.766;9.626;2022-10-15T07:55:45;69.70;;;44.00;;
12871;SDS011;6504;53.766;9.626;2022-10-15T07:58:14;71.10;;;41.57;;
12871;SDS011;6504;53.766;9.626;2022-10-15T08:00:42;64.50;;;39.27;;
12871;SDS011;6504;53.766;9.626;2022-10-15T08:03:10;67.80;;;41.40;;
12871;SDS011;6504;53.766;9.626;2022-10-15T08:05:38;67.73;;;40.00;;
12871;SDS011;6504;53.766;9.626;2022-10-15T08:08:06;62.90;;;38.03;;
12871;SDS011;6504;53.766;9.626;2022-10-15T08:10:34;63.17;;;38.20;;
12871;SDS011;6504;53.766;9.626;2022-10-15T08:13:04;58.33;;;37.03;;
12871;SDS011;6504;53.766;9.626;2022-10-15T08:15:32;63.27;;;38.63;;
12871;SDS011;6504;53.766;9.626;2022-10-15T08:18:00;64.60;;;38.53;;
12871;SDS011;6504;53.766;9.626;2022-10-15T08:20:28;56.10;;;35.90;;
12871;SDS011;6504;53.766;9.626;2022-10-15T08:22:56;57.67;;;34.70;;
12871;SDS011;6504;53.766;9.626;2022-10-15T08:25:24;59.77;;;35.63;;
12871;SDS011;6504;53.766;9.626;2022-10-15T08:27:52;58.33;;;35.13;;
12871;SDS011;6504;53.766;9.626;2022-10-15T08:30:23;56.80;;;35.97;;
12871;SDS011;6504;53.766;9.626;2022-10-15T08:32:51;51.67;;;34.03;;
12871;SDS011;6504;53.766;9.626;2022-10-15T08:35:19;50.67;;;32.83;;
12871;SDS011;6504;53.766;9.626;2022-10-15T08:37:47;55.73;;;34.13;;
12871;SDS011;6504;53.766;9.626;2022-10-15T08:40:15;55.63;;;33.97;;
12871;SDS011;6504;53.766;9.626;2022-10-15T08:42:44;51.40;;;32.33;;
12871;SDS011;6504;53.766;9.626;2022-10-15T08:45:14;48.13;;;32.03;;
12871;SDS011;6504;53.766;9.626;2022-10-15T08:47:46;50.17;;;32.93;;
12871;SDS011;6504;53.766;9.626;2022-10-15T08:50:23;48.20;;;31.30;;
12871;SDS011;6504;53.766;9.626;2022-10-15T08:52:55;45.93;;;31.83;;
12871;SDS011;6504;53.766;9.626;2022-10-15T08:55:25;44.00;;;30.07;;
12871;SDS011;6504;53.766;9.626;2022-10-15T08:57:59;45.83;;;31.73;;
12871;SDS011;6504;53.766;9.626;2022-10-15T09:00:34;45.97;;;31.83;;
12871;SDS011;6504;53.766;9.626;2022-10-15T09:03:13;49.23;;;31.90;;
12871;SDS011;6504;53.766;9.626;2022-10-15T09:05:56;45.20;;;31.00;;
12871;SDS011;6504;53.766;9.626;2022-10-15T09:08:35;42.23;;;30.23;;
12871;SDS011;6504;53.766;9.626;2022-10-15T09:11:08;43.07;;;30.23;;
12871;SDS011;6504;53.766;9.626;2022-10-15T09:13:43;43.50;;;29.30;;
12871;SDS011;6504;53.766;9.626;2022-10-15T09:16:13;43.17;;;30.57;;
12871;SDS011;6504;53.766;9.626;2022-10-15T09:18:44;41.53;;;30.03;;
12871;SDS011;6504;53.766;9.626;2022-10-15T09:21:14;42.67;;;30.20;;
12871;SDS011;6504;53.766;9.626;2022-10-15T09:23:43;48.03;;;31.87;;
12871;SDS011;6504;53.766;9.626;2022-10-15T09:26:22;43.73;;;30.83;;
12871;SDS011;6504;53.766;9.626;2022-10-15T09:28:57;48.37;;;31.20;;
12871;SDS011;6504;53.766;9.626;2022-10-15T09:31:33;45.83;;;31.77;;
12871;SDS011;6504;53.766;9.626;2022-10-15T09:34:11;46.47;;;31.13;;
12871;SDS011;6504;53.766;9.626;2022-10-15T09:36:47;44.70;;;30.00;;
12871;SDS011;6504;53.766;9.626;2022-10-15T09:39:29;43.23;;;31.00;;
12871;SDS011;6504;53.766;9.626;2022-10-15T09:42:06;42.43;;;29.77;;
12871;SDS011;6504;53.766;9.626;2022-10-15T09:44:43;47.27;;;31.00;;
12871;SDS011;6504;53.766;9.626;2022-10-15T09:47:14;39.83;;;28.23;;
12871;SDS011;6504;53.766;9.626;2022-10-15T09:49:50;42.57;;;30.27;;
12871;SDS011;6504;53.766;9.626;2022-10-15T09:52:20;41.63;;;29.40;;
12871;SDS011;6504;53.766;9.626;2022-10-15T09:54:59;42.53;;;29.37;;
12871;SDS011;6504;53.766;9.626;2022-10-15T09:57:33;40.37;;;29.37;;
12871;SDS011;6504;53.766;9.626;2022-10-15T10:00:03;42.37;;;29.90;;
12871;SDS011;6504;53.766;9.626;2022-10-15T10:02:33;41.13;;;30.33;;
12871;SDS011;6504;53.766;9.626;2022-10-15T10:07:57;37.47;;;28.43;;
12871;SDS011;6504;53.766;9.626;2022-10-15T10:10:35;37.87;;;26.13;;
12871;SDS011;6504;53.766;9.626;2022-10-15T10:13:17;33.87;;;25.60;;
12871;SDS011;6504;53.766;9.626;2022-10-15T10:15:50;36.50;;;26.60;;
12871;SDS011;6504;53.766;9.626;2022-10-15T10:18:24;34.70;;;26.90;;
12871;SDS011;6504;53.766;9.626;2022-10-15T10:20:53;37.20;;;26.13;;
12871;SDS011;6504;53.766;9.626;2022-10-15T10:23:27;35.37;;;26.37;;
12871;SDS011;6504;53.766;9.626;2022-10-15T10:26:00;35.33;;;26.83;;
12871;SDS011;6504;53.766;9.626;2022-10-15T10:28:31;38.53;;;27.10;;
12871;SDS011;6504;53.766;9.626;2022-10-15T10:31:07;35.83;;;26.70;;
12871;SDS011;6504;53.766;9.626;2022-10-15T10:33:41;32.47;;;25.57;;
12871;SDS011;6504;53.766;9.626;2022-10-15T10:36:18;32.53;;;25.13;;
12871;SDS011;6504;53.766;9.626;2022-10-15T10:38:55;38.37;;;27.47;;
12871;SDS011;6504;53.766;9.626;2022-10-15T10:44:18;36.67;;;25.93;;
12871;SDS011;6504;53.766;9.626;2022-10-15T10:49:42;33.63;;;25.40;;
12871;SDS011;6504;53.766;9.626;2022-10-15T10:52:19;32.70;;;25.23;;
12871;SDS011;6504;53.766;9.626;2022-10-15T10:54:56;33.57;;;24.90;;
12871;SDS011;6504;53.766;9.626;2022-10-15T10:57:28;30.70;;;23.40;;
12871;SDS011;6504;53.766;9.626;2022-10-15T11:00:06;29.70;;;24.03;;
12871;SDS011;6504;53.766;9.626;2022-10-15T11:02:38;28.03;;;22.50;;
12871;SDS011;6504;53.766;9.626;2022-10-15T11:05:09;27.80;;;21.67;;
12871;SDS011;6504;53.766;9.626;2022-10-15T11:07:40;24.53;;;19.97;;
12871;SDS011;6504;53.766;9.626;2022-10-15T11:10:17;26.57;;;20.83;;
12871;SDS011;6504;53.766;9.626;2022-10-15T11:12:53;26.47;;;19.77;;
12871;SDS011;6504;53.766;9.626;2022-10-15T11:15:35;23.27;;;18.77;;
12871;SDS011;6504;53.766;9.626;2022-10-15T11:18:17;25.93;;;18.43;;
12871;SDS011;6504;53.766;9.626;2022-10-15T11:21:06;20.00;;;15.83;;
12871;SDS011;6504;53.766;9.626;2022-10-15T11:26:36;20.43;;;15.03;;
12871;SDS011;6504;53.766;9.626;2022-10-15T11:29:27;17.93;;;14.03;;
12871;SDS011;6504;53.766;9.626;2022-10-15T11:32:11;16.73;;;13.93;;
12871;SDS011;6504;53.766;9.626;2022-10-15T11:34:56;19.07;;;14.10;;
12871;SDS011;6504;53.766;9.626;2022-10-15T11:37:50;19.70;;;14.97;;
12871;SDS011;6504;53.766;9.626;2022-10-15T11:40:31;16.43;;;12.90;;
12871;SDS011;6504;53.766;9.626;2022-10-15T11:43:08;18.20;;;13.40;;
12871;SDS011;6504;53.766;9.626;2022-10-15T11:45:43;15.80;;;12.73;;
12871;SDS011;6504;53.766;9.626;2022-10-15T11:48:25;16.80;;;13.37;;
12871;SDS011;6504;53.766;9.626;2022-10-15T11:51:09;14.83;;;12.97;;
12871;SDS011;6504;53.766;9.626;2022-10-15T11:53:50;18.93;;;14.47;;
12871;SDS011;6504;53.766;9.626;2022-10-15T11:56:24;17.93;;;15.67;;
12871;SDS011;6504;53.766;9.626;2022-10-15T11:59:03;16.93;;;15.03;;
12871;SDS011;6504;53.766;9.626;2022-10-15T12:01:43;21.57;;;16.30;;
12871;SDS011;6504;53.766;9.626;2022-10-15T12:04:17;17.30;;;14.60;;
12871;SDS011;6504;53.766;9.626;2022-10-15T12:06:57;17.67;;;14.10;;
12871;SDS011;6504;53.766;9.626;2022-10-15T12:09:29;16.13;;;11.77;;
12871;SDS011;6504;53.766;9.626;2022-10-15T12:12:04;14.53;;;10.80;;
12871;SDS011;6504;53.766;9.626;2022-10-15T12:14:38;13.43;;;11.20;;
12871;SDS011;6504;53.766;9.626;2022-10-15T12:17:13;11.87;;;10.23;;
12871;SDS011;6504;53.766;9.626;2022-10-15T12:19:49;12.43;;;9.03;;
12871;SDS011;6504;53.766;9.626;2022-10-15T12:22:31;12.40;;;9.17;;
12871;SDS011;6504;53.766;9.626;2022-10-15T12:25:01;11.40;;;9.23;;
12871;SDS011;6504;53.766;9.626;2022-10-15T12:27:31;12.70;;;8.93;;
12871;SDS011;6504;53.766;9.626;2022-10-15T12:30:11;10.97;;;8.50;;
12871;SDS011;6504;53.766;9.626;2022-10-15T12:32:47;10.57;;;8.00;;
12871;SDS011;6504;53.766;9.626;2022-10-15T12:35:21;10.67;;;8.60;;
12871;SDS011;6504;53.766;9.626;2022-10-15T12:40:54;12.43;;;8.73;;
12871;SDS011;6504;53.766;9.626;2022-10-15T12:43:32;10.67;;;9.30;;
12871;SDS011;6504;53.766;9.626;2022-10-15T12:46:04;12.90;;;9.57;;
12871;SDS011;6504;53.766;9.626;2022-10-15T12:48:37;10.97;;;8.50;;
12871;SDS011;6504;53.766;9.626;2022-10-15T13:03:15;11.30;;;8.67;;
12871;SDS011;6504;53.766;9.626;2022-10-15T13:05:47;10.57;;;7.83;;
12871;SDS011;6504;53.766;9.626;2022-10-15T13:08:20;10.77;;;8.53;;
12871;SDS011;6504;53.766;9.626;2022-10-15T13:10:51;10.17;;;9.10;;
12871;SDS011;6504;53.766;9.626;2022-10-15T13:13:21;10.03;;;8.93;;
12871;SDS011;6504;53.766;9.626;2022-10-15T13:15:57;10.83;;;8.13;;
12871;SDS011;6504;53.766;9.626;2022-10-15T13:18:28;10.63;;;8.53;;
12871;SDS011;6504;53.766;9.626;2022-10-15T13:20:57;12.43;;;10.60;;
12871;SDS011;6504;53.766;9.626;2022-10-15T13:23:28;12.97;;;10.93;;
12871;SDS011;6504;53.766;9.626;2022-10-15T13:26:10;12.93;;;11.63;;
12871;SDS011;6504;53.766;9.626;2022-10-15T13:28:42;13.90;;;11.53;;
12871;SDS011;6504;53.766;9.626;2022-10-15T13:31:12;15.50;;;13.00;;
12871;SDS011;6504;53.766;9.626;2022-10-15T13:33:46;15.37;;;13.73;;
12871;SDS011;6504;53.766;9.626;2022-10-15T13:36:18;13.70;;;12.30;;
12871;SDS011;6504;53.766;9.626;2022-10-15T13:38:53;16.97;;;14.13;;
12871;SDS011;6504;53.766;9.626;2022-10-15T13:41:23;15.47;;;13.87;;
12871;SDS011;6504;53.766;9.626;2022-10-15T13:43:53;15.50;;;13.90;;
12871;SDS011;6504;53.766;9.626;2022-10-15T13:46:24;15.40;;;13.87;;
12871;SDS011;6504;53.766;9.626;2022-10-15T13:48:58;12.93;;;11.27;;
12871;SDS011;6504;53.766;9.626;2022-10-15T13:51:32;13.13;;;11.73;;
12871;SDS011;6504;53.766;9.626;2022-10-15T13:54:07;12.07;;;10.87;;
12871;SDS011;6504;53.766;9.626;2022-10-15T13:56:36;11.47;;;10.37;;
12871;SDS011;6504;53.766;9.626;2022-10-15T13:59:16;14.03;;;10.33;;
12871;SDS011;6504;53.766;9.626;2022-10-15T14:01:45;11.00;;;9.83;;
12871;SDS011;6504;53.766;9.626;2022-10-15T14:04:17;13.63;;;11.97;;
12871;SDS011;6504;53.766;9.626;2022-10-15T14:06:51;11.53;;;10.40;;
12871;SDS011;6504;53.766;9.626;2022-10-15T14:09:24;11.47;;;10.27;;
12871;SDS011;6504;53.766;9.626;2022-10-15T14:11:55;12.23;;;10.93;;
12871;SDS011;6504;53.766;9.626;2022-10-15T14:14:30;13.00;;;11.57;;
12871;SDS011;6504;53.766;9.626;2022-10-15T14:17:00;15.50;;;13.50;;
12871;SDS011;6504;53.766;9.626;2022-10-15T14:19:32;15.23;;;13.63;;
12871;SDS011;6504;53.766;9.626;2022-10-15T14:22:01;15.13;;;13.53;;
12871;SDS011;6504;53.766;9.626;2022-10-15T14:24:30;16.30;;;14.60;;
12871;SDS011;6504;53.766;9.626;2022-10-15T14:27:01;15.23;;;13.57;;
12871;SDS011;6504;53.766;9.626;2022-10-15T14:29:36;14.10;;;12.53;;
12871;SDS011;6504;53.766;9.626;2022-10-15T14:32:17;14.83;;;13.27;;
12871;SDS011;6504;53.766;9.626;2022-10-15T14:34:48;14.83;;;13.27;;
12871;SDS011;6504;53.766;9.626;2022-10-15T14:40:13;13.47;;;12.27;;
12871;SDS011;6504;53.766;9.626;2022-10-15T14:42:44;13.10;;;11.90;;
12871;SDS011;6504;53.766;9.626;2022-10-15T14:45:18;13.27;;;11.70;;
12871;SDS011;6504;53.766;9.626;2022-10-15T14:47:50;14.03;;;12.63;;
12871;SDS011;6504;53.766;9.626;2022-10-15T14:50:23;15.50;;;14.00;;
12871;SDS011;6504;53.766;9.626;2022-10-15T14:52:54;14.57;;;13.20;;
12871;SDS011;6504;53.766;9.626;2022-10-15T14:55:26;14.23;;;12.30;;
12871;SDS011;6504;53.766;9.626;2022-10-15T14:57:59;14.10;;;12.70;;
12871;SDS011;6504;53.766;9.626;2022-10-15T15:00:30;15.27;;;13.73;;
12871;SDS011;6504;53.766;9.626;2022-10-15T15:03:01;14.53;;;13.13;;
12871;SDS011;6504;53.766;9.626;2022-10-15T15:05:41;14.87;;;13.37;;
12871;SDS011;6504;53.766;9.626;2022-10-15T15:08:11;15.97;;;14.37;;
12871;SDS011;6504;53.766;9.626;2022-10-15T15:10:39;15.53;;;13.93;;
12871;SDS011;6504;53.766;9.626;2022-10-15T15:13:09;17.67;;;14.70;;
12871;SDS011;6504;53.766;9.626;2022-10-15T15:15:38;16.60;;;14.83;;
12871;SDS011;6504;53.766;9.626;2022-10-15T15:18:08;16.60;;;14.90;;
12871;SDS011;6504;53.766;9.626;2022-10-15T15:20:38;15.53;;;13.87;;
12871;SDS011;6504;53.766;9.626;2022-10-15T15:23:09;16.57;;;14.60;;
12871;SDS011;6504;53.766;9.626;2022-10-15T15:25:39;17.57;;;15.73;;
12871;SDS011;6504;53.766;9.626;2022-10-15T15:28:10;15.37;;;13.87;;
12871;SDS011;6504;53.766;9.626;2022-10-15T15:30:39;13.90;;;12.60;;
12871;SDS011;6504;53.766;9.626;2022-10-15T15:33:09;14.10;;;12.73;;
12871;SDS011;6504;53.766;9.626;2022-10-15T15:35:40;17.87;;;16.10;;